sensor_id;sensor_type;location;lat;lon;timestamp;pressure;altitude;pressure_sealevel;temperature;humidity
46922;BME280;44039;48.336;10.454;2022-08-19T00:02:45;95461.44;;;17.67;100.00
46922;BME280;44039;48.336;10.454;2022-08-19T00:05:36;95458.06;;;17.57;100.00
46922;BME280;44039;48.336;10.454;2022-08-19T00:08:23;95462.94;;;17.70;100.00
46922;BME280;44039;48.336;10.454;2022-08-19T00:11:11;95462.03;;;17.61;100.00
46922;BME280;44039;48.336;10.454;2022-08-19T00:14:06;95461.78;;;17.03;100.00
46922;BME280;44039;48.336;10.454;2022-08-19T00:16:54;95470.13;;;16.80;100.00
46922;BME280;44039;48.336;10.454;2022-08-19T00:19:41;95464.16;;;16.78;100.00
46922;BME280;44039;48.336;10.454;2022-08-19T00:22:28;95462.50;;;16.77;100.00
46922;BME280;44039;48.336;10.454;2022-08-19T00:25:16;95463.03;;;16.81;100.00
46922;BME280;44039;48.336;10.454;2022-08-19T00:28:04;95471.69;;;16.91;100.00
46922;BME280;44039;48.336;10.454;2022-08-19T00:30:51;95467.13;;;17.11;100.00
46922;BME280;44039;48.336;10.454;2022-08-19T00:33:39;95474.25;;;17.01;100.00
46922;BME280;44039;48.336;10.454;2022-08-19T00:36:27;95471.94;;;16.98;100.00
46922;BME280;44039;48.336;10.454;2022-08-19T00:39:16;95478.63;;;17.10;100.00
46922;BME280;44039;48.336;10.454;2022-08-19T00:42:04;95480.50;;;17.00;100.00
46922;BME280;44039;48.336;10.454;2022-08-19T00:44:52;95484.06;;;17.26;100.00
46922;BME280;44039;48.336;10.454;2022-08-19T00:47:40;95476.97;;;16.91;100.00
46922;BME280;44039;48.336;10.454;2022-08-19T00:50:27;95483.69;;;16.58;100.00
46922;BME280;44039;48.336;10.454;2022-08-19T00:53:17;95489.22;;;16.55;100.00
46922;BME280;44039;48.336;10.454;2022-08-19T00:56:05;95472.84;;;16.61;100.00
46922;BME280;44039;48.336;10.454;2022-08-19T00:58:55;95467.81;;;16.67;100.00
46922;BME280;44039;48.336;10.454;2022-08-19T01:01:44;95468.16;;;16.55;100.00
46922;BME280;44039;48.336;10.454;2022-08-19T01:04:32;95459.50;;;16.62;100.00
46922;BME280;44039;48.336;10.454;2022-08-19T01:07:19;95460.16;;;16.74;100.00
46922;BME280;44039;48.336;10.454;2022-08-19T01:10:10;95463.69;;;17.01;100.00
46922;BME280;44039;48.336;10.454;2022-08-19T01:12:59;95466.25;;;16.75;100.00
46922;BME280;44039;48.336;10.454;2022-08-19T01:15:51;95469.50;;;16.86;100.00
46922;BME280;44039;48.336;10.454;2022-08-19T01:18:40;95466.06;;;17.04;100.00
46922;BME280;44039;48.336;10.454;2022-08-19T01:24:15;95453.63;;;16.96;100.00
46922;BME280;44039;48.336;10.454;2022-08-19T01:27:05;95451.22;;;17.03;100.00
46922;BME280;44039;48.336;10.454;2022-08-19T01:29:56;95460.91;;;17.20;100.00
46922;BME280;44039;48.336;10.454;2022-08-19T01:32:44;95453.59;;;17.32;100.00
46922;BME280;44039;48.336;10.454;2022-08-19T01:35:32;95458.09;;;17.39;100.00
46922;BME280;44039;48.336;10.454;2022-08-19T01:38:25;95466.00;;;17.39;100.00
46922;BME280;44039;48.336;10.454;2022-08-19T01:41:12;95459.28;;;17.19;100.00
46922;BME280;44039;48.336;10.454;2022-08-19T01:44:00;95451.72;;;17.24;100.00
46922;BME280;44039;48.336;10.454;2022-08-19T01:47:04;95457.91;;;17.15;100.00
46922;BME280;44039;48.336;10.454;2022-08-19T01:49:52;95460.25;;;17.00;100.00
46922;BME280;44039;48.336;10.454;2022-08-19T01:52:41;95452.03;;;16.85;100.00
46922;BME280;44039;48.336;10.454;2022-08-19T01:55:29;95458.75;;;16.98;100.00
46922;BME280;44039;48.336;10.454;2022-08-19T01:58:21;95469.97;;;17.00;100.00
46922;BME280;44039;48.336;10.454;2022-08-19T02:01:09;95476.59;;;17.04;100.00
46922;BME280;44039;48.336;10.454;2022-08-19T02:03:58;95486.84;;;17.07;100.00
46922;BME280;44039;48.336;10.454;2022-08-19T02:06:47;95488.66;;;16.88;100.00
46922;BME280;44039;48.336;10.454;2022-08-19T02:09:35;95492.34;;;16.95;100.00
46922;BME280;44039;48.336;10.454;2022-08-19T02:12:22;95484.28;;;16.97;100.00
46922;BME280;44039;48.336;10.454;2022-08-19T02:15:09;95487.59;;;16.99;100.00
46922;BME280;44039;48.336;10.454;2022-08-19T02:17:56;95480.50;;;16.82;100.00
46922;BME280;44039;48.336;10.454;2022-08-19T02:20:44;95468.63;;;16.95;100.00
46922;BME280;44039;48.336;10.454;2022-08-19T02:23:32;95470.19;;;16.88;100.00
46922;BME280;44039;48.336;10.454;2022-08-19T02:26:19;95456.94;;;16.80;100.00
46922;BME280;44039;48.336;10.454;2022-08-19T02:29:06;95457.91;;;16.79;100.00
46922;BME280;44039;48.336;10.454;2022-08-19T02:31:53;95455.44;;;16.68;100.00
46922;BME280;44039;48.336;10.454;2022-08-19T02:34:40;95458.34;;;16.75;100.00
46922;BME280;44039;48.336;10.454;2022-08-19T02:37:27;95452.25;;;16.74;100.00
46922;BME280;44039;48.336;10.454;2022-08-19T02:40:33;95451.00;;;16.96;100.00
46922;BME280;44039;48.336;10.454;2022-08-19T02:43:21;95452.69;;;17.23;100.00
46922;BME280;44039;48.336;10.454;2022-08-19T02:49:03;95456.25;;;17.14;100.00
46922;BME280;44039;48.336;10.454;2022-08-19T02:51:51;95466.97;;;17.56;100.00
46922;BME280;44039;48.336;10.454;2022-08-19T02:54:38;95454.22;;;17.08;100.00
46922;BME280;44039;48.336;10.454;2022-08-19T02:57:26;95456.09;;;16.98;100.00
46922;BME280;44039;48.336;10.454;2022-08-19T03:00:14;95455.72;;;17.72;100.00
46922;BME280;44039;48.336;10.454;2022-08-19T03:03:01;95451.00;;;17.58;100.00
46922;BME280;44039;48.336;10.454;2022-08-19T03:05:48;95460.50;;;17.33;100.00
46922;BME280;44039;48.336;10.454;2022-08-19T03:08:44;95458.13;;;17.21;100.00
46922;BME280;44039;48.336;10.454;2022-08-19T03:11:32;95455.22;;;17.50;100.00
46922;BME280;44039;48.336;10.454;2022-08-19T03:14:19;95454.00;;;17.19;100.00
46922;BME280;44039;48.336;10.454;2022-08-19T03:17:07;95456.97;;;17.68;100.00
46922;BME280;44039;48.336;10.454;2022-08-19T03:19:54;95450.88;;;17.23;100.00
46922;BME280;44039;48.336;10.454;2022-08-19T03:22:42;95457.38;;;17.11;100.00
46922;BME280;44039;48.336;10.454;2022-08-19T03:25:29;95454.81;;;17.19;100.00
46922;BME280;44039;48.336;10.454;2022-08-19T03:28:16;95458.47;;;17.44;100.00
46922;BME280;44039;48.336;10.454;2022-08-19T03:31:07;95456.16;;;17.67;100.00
46922;BME280;44039;48.336;10.454;2022-08-19T03:34:36;95454.56;;;17.31;100.00
46922;BME280;44039;48.336;10.454;2022-08-19T03:37:23;95449.38;;;17.65;100.00
46922;BME280;44039;48.336;10.454;2022-08-19T03:40:11;95449.19;;;17.40;100.00
46922;BME280;44039;48.336;10.454;2022-08-19T03:43:02;95461.22;;;17.35;100.00
46922;BME280;44039;48.336;10.454;2022-08-19T03:46:03;95457.47;;;17.45;100.00
46922;BME280;44039;48.336;10.454;2022-08-19T03:48:52;95458.22;;;17.73;100.00
46922;BME280;44039;48.336;10.454;2022-08-19T03:51:43;95457.53;;;17.71;100.00
46922;BME280;44039;48.336;10.454;2022-08-19T03:54:30;95464.47;;;17.55;100.00
46922;BME280;44039;48.336;10.454;2022-08-19T03:57:17;95453.56;;;17.49;100.00
46922;BME280;44039;48.336;10.454;2022-08-19T04:00:05;95446.81;;;17.55;100.00
46922;BME280;44039;48.336;10.454;2022-08-19T04:02:59;95452.25;;;17.28;100.00
46922;BME280;44039;48.336;10.454;2022-08-19T04:05:47;95451.47;;;17.17;100.00
46922;BME280;44039;48.336;10.454;2022-08-19T04:08:34;95445.28;;;17.44;100.00
46922;BME280;44039;48.336;10.454;2022-08-19T04:11:27;95438.91;;;17.73;100.00
46922;BME280;44039;48.336;10.454;2022-08-19T04:14:29;95433.75;;;17.97;100.00
46922;BME280;44039;48.336;10.454;2022-08-19T04:17:17;95430.28;;;17.45;100.00
46922;BME280;44039;48.336;10.454;2022-08-19T04:20:04;95441.72;;;17.54;100.00
46922;BME280;44039;48.336;10.454;2022-08-19T04:22:52;95436.81;;;17.85;100.00
46922;BME280;44039;48.336;10.454;2022-08-19T04:25:42;95430.94;;;17.99;100.00
46922;BME280;44039;48.336;10.454;2022-08-19T04:28:30;95439.34;;;17.42;100.00
46922;BME280;44039;48.336;10.454;2022-08-19T04:31:25;95428.28;;;17.65;100.00
46922;BME280;44039;48.336;10.454;2022-08-19T04:34:14;95433.22;;;17.68;100.00
46922;BME280;44039;48.336;10.454;2022-08-19T04:37:05;95442.84;;;17.51;100.00
46922;BME280;44039;48.336;10.454;2022-08-19T04:39:59;95449.34;;;17.39;100.00
46922;BME280;44039;48.336;10.454;2022-08-19T04:43:04;95461.31;;;17.51;100.00
46922;BME280;44039;48.336;10.454;2022-08-19T04:45:51;95468.81;;;17.38;100.00
46922;BME280;44039;48.336;10.454;2022-08-19T04:48:42;95474.41;;;17.35;100.00
46922;BME280;44039;48.336;10.454;2022-08-19T04:51:35;95486.91;;;17.15;100.00
46922;BME280;44039;48.336;10.454;2022-08-19T04:54:25;95492.34;;;16.95;100.00
46922;BME280;44039;48.336;10.454;2022-08-19T04:57:24;95496.47;;;17.16;100.00
46922;BME280;44039;48.336;10.454;2022-08-19T05:00:13;95505.22;;;17.34;100.00
46922;BME280;44039;48.336;10.454;2022-08-19T05:03:00;95501.41;;;17.55;100.00
46922;BME280;44039;48.336;10.454;2022-08-19T05:05:48;95502.22;;;17.29;100.00
46922;BME280;44039;48.336;10.454;2022-08-19T05:08:37;95503.22;;;17.54;100.00
46922;BME280;44039;48.336;10.454;2022-08-19T05:11:30;95506.50;;;17.30;100.00
46922;BME280;44039;48.336;10.454;2022-08-19T05:14:17;95504.88;;;17.11;100.00
46922;BME280;44039;48.336;10.454;2022-08-19T05:17:06;95510.13;;;17.29;100.00
46922;BME280;44039;48.336;10.454;2022-08-19T05:20:13;95515.63;;;17.36;100.00
46922;BME280;44039;48.336;10.454;2022-08-19T05:23:18;95507.53;;;17.55;100.00
46922;BME280;44039;48.336;10.454;2022-08-19T05:26:08;95511.69;;;17.58;100.00
46922;BME280;44039;48.336;10.454;2022-08-19T05:28:57;95516.22;;;17.47;100.00
46922;BME280;44039;48.336;10.454;2022-08-19T05:31:47;95513.97;;;17.35;100.00
46922;BME280;44039;48.336;10.454;2022-08-19T05:34:37;95508.53;;;17.36;100.00
46922;BME280;44039;48.336;10.454;2022-08-19T05:37:25;95513.28;;;17.33;100.00
46922;BME280;44039;48.336;10.454;2022-08-19T05:40:14;95518.41;;;17.16;100.00
46922;BME280;44039;48.336;10.454;2022-08-19T05:43:02;95524.59;;;17.07;100.00
46922;BME280;44039;48.336;10.454;2022-08-19T05:45:49;95517.06;;;16.94;100.00
46922;BME280;44039;48.336;10.454;2022-08-19T05:48:37;95515.47;;;17.02;100.00
46922;BME280;44039;48.336;10.454;2022-08-19T05:51:24;95513.38;;;17.05;100.00
46922;BME280;44039;48.336;10.454;2022-08-19T05:54:15;95515.69;;;17.08;100.00
46922;BME280;44039;48.336;10.454;2022-08-19T05:57:02;95512.63;;;16.95;100.00
46922;BME280;44039;48.336;10.454;2022-08-19T05:59:50;95509.31;;;17.11;100.00
46922;BME280;44039;48.336;10.454;2022-08-19T06:02:44;95497.38;;;16.89;100.00
46922;BME280;44039;48.336;10.454;2022-08-19T06:05:32;95495.91;;;17.04;100.00
46922;BME280;44039;48.336;10.454;2022-08-19T06:08:32;95493.63;;;17.09;100.00
46922;BME280;44039;48.336;10.454;2022-08-19T06:11:25;95496.31;;;17.17;100.00
46922;BME280;44039;48.336;10.454;2022-08-19T06:14:22;95497.25;;;17.26;100.00
46922;BME280;44039;48.336;10.454;2022-08-19T06:17:13;95501.63;;;17.61;100.00
46922;BME280;44039;48.336;10.454;2022-08-19T06:20:08;95494.25;;;17.83;100.00
46922;BME280;44039;48.336;10.454;2022-08-19T06:22:58;95497.75;;;18.17;100.00
46922;BME280;44039;48.336;10.454;2022-08-19T06:25:45;95502.81;;;17.85;100.00
46922;BME280;44039;48.336;10.454;2022-08-19T06:28:32;95510.44;;;17.88;100.00
46922;BME280;44039;48.336;10.454;2022-08-19T06:31:25;95511.59;;;17.67;100.00
46922;BME280;44039;48.336;10.454;2022-08-19T06:34:12;95513.50;;;17.57;100.00
46922;BME280;44039;48.336;10.454;2022-08-19T06:37:00;95513.03;;;17.62;100.00
46922;BME280;44039;48.336;10.454;2022-08-19T06:39:48;95513.91;;;17.27;100.00
46922;BME280;44039;48.336;10.454;2022-08-19T06:42:37;95518.94;;;17.38;100.00
46922;BME280;44039;48.336;10.454;2022-08-19T06:45:40;95514.38;;;17.66;100.00
46922;BME280;44039;48.336;10.454;2022-08-19T06:48:27;95520.53;;;17.92;100.00
46922;BME280;44039;48.336;10.454;2022-08-19T06:51:16;95527.72;;;18.34;100.00
46922;BME280;44039;48.336;10.454;2022-08-19T06:54:05;95528.84;;;17.97;100.00
46922;BME280;44039;48.336;10.454;2022-08-19T06:57:06;95531.41;;;17.89;100.00
46922;BME280;44039;48.336;10.454;2022-08-19T06:59:54;95534.78;;;18.25;100.00
46922;BME280;44039;48.336;10.454;2022-08-19T07:02:43;95542.34;;;17.94;100.00
46922;BME280;44039;48.336;10.454;2022-08-19T07:05:41;95543.25;;;17.85;100.00
46922;BME280;44039;48.336;10.454;2022-08-19T07:08:32;95540.97;;;18.16;100.00
46922;BME280;44039;48.336;10.454;2022-08-19T07:11:20;95536.09;;;17.77;100.00
46922;BME280;44039;48.336;10.454;2022-08-19T07:14:09;95539.06;;;17.74;100.00
46922;BME280;44039;48.336;10.454;2022-08-19T07:17:10;95532.47;;;17.78;100.00
46922;BME280;44039;48.336;10.454;2022-08-19T07:19:58;95536.44;;;17.57;100.00
46922;BME280;44039;48.336;10.454;2022-08-19T07:22:55;95541.78;;;17.47;100.00
46922;BME280;44039;48.336;10.454;2022-08-19T07:25:42;95534.63;;;17.75;100.00
46922;BME280;44039;48.336;10.454;2022-08-19T07:28:30;95529.63;;;17.54;100.00
46922;BME280;44039;48.336;10.454;2022-08-19T07:31:22;95519.28;;;17.78;100.00
46922;BME280;44039;48.336;10.454;2022-08-19T07:34:11;95521.47;;;17.83;100.00
46922;BME280;44039;48.336;10.454;2022-08-19T07:37:00;95521.56;;;17.56;100.00
46922;BME280;44039;48.336;10.454;2022-08-19T07:39:47;95521.78;;;17.80;100.00
46922;BME280;44039;48.336;10.454;2022-08-19T07:42:35;95521.19;;;17.50;100.00
46922;BME280;44039;48.336;10.454;2022-08-19T07:45:22;95516.44;;;17.54;100.00
46922;BME280;44039;48.336;10.454;2022-08-19T07:48:09;95530.50;;;17.63;100.00
46922;BME280;44039;48.336;10.454;2022-08-19T07:51:00;95540.41;;;17.78;100.00
46922;BME280;44039;48.336;10.454;2022-08-19T07:53:50;95530.81;;;17.77;100.00
46922;BME280;44039;48.336;10.454;2022-08-19T07:56:37;95540.63;;;17.85;100.00
46922;BME280;44039;48.336;10.454;2022-08-19T07:59:26;95541.25;;;17.43;100.00
46922;BME280;44039;48.336;10.454;2022-08-19T08:02:13;95550.59;;;17.38;100.00
46922;BME280;44039;48.336;10.454;2022-08-19T08:05:00;95545.25;;;17.30;100.00
46922;BME280;44039;48.336;10.454;2022-08-19T08:08:06;95537.03;;;17.50;100.00
46922;BME280;44039;48.336;10.454;2022-08-19T08:11:15;95544.72;;;17.80;100.00
46922;BME280;44039;48.336;10.454;2022-08-19T08:14:05;95533.25;;;17.71;100.00
46922;BME280;44039;48.336;10.454;2022-08-19T08:17:14;95537.47;;;17.46;100.00
46922;BME280;44039;48.336;10.454;2022-08-19T08:20:18;95533.63;;;17.58;100.00
46922;BME280;44039;48.336;10.454;2022-08-19T08:23:05;95524.78;;;17.85;100.00
46922;BME280;44039;48.336;10.454;2022-08-19T08:26:11;95520.38;;;17.32;100.00
46922;BME280;44039;48.336;10.454;2022-08-19T08:29:01;95526.69;;;17.39;100.00
46922;BME280;44039;48.336;10.454;2022-08-19T08:31:58;95523.38;;;17.37;100.00
46922;BME280;44039;48.336;10.454;2022-08-19T08:34:46;95532.00;;;17.04;100.00
46922;BME280;44039;48.336;10.454;2022-08-19T08:37:39;95542.00;;;17.54;100.00
46922;BME280;44039;48.336;10.454;2022-08-19T08:40:46;95544.41;;;17.65;100.00
46922;BME280;44039;48.336;10.454;2022-08-19T08:43:39;95547.16;;;17.73;100.00
46922;BME280;44039;48.336;10.454;2022-08-19T08:46:43;95544.13;;;17.32;100.00
46922;BME280;44039;48.336;10.454;2022-08-19T08:52:50;95550.00;;;17.44;100.00
46922;BME280;44039;48.336;10.454;2022-08-19T08:55:40;95549.53;;;17.31;100.00
46922;BME280;44039;48.336;10.454;2022-08-19T08:58:36;95553.09;;;17.57;100.00
46922;BME280;44039;48.336;10.454;2022-08-19T09:01:29;95544.69;;;17.62;100.00
46922;BME280;44039;48.336;10.454;2022-08-19T09:04:16;95552.72;;;17.34;100.00
46922;BME280;44039;48.336;10.454;2022-08-19T09:10:43;95559.09;;;17.67;100.00
46922;BME280;44039;48.336;10.454;2022-08-19T09:14:02;95560.00;;;17.94;100.00
46922;BME280;44039;48.336;10.454;2022-08-19T09:17:15;95555.88;;;18.17;100.00
46922;BME280;44039;48.336;10.454;2022-08-19T09:20:12;95556.56;;;17.58;100.00
46922;BME280;44039;48.336;10.454;2022-08-19T09:23:00;95556.06;;;17.98;100.00
46922;BME280;44039;48.336;10.454;2022-08-19T09:25:48;95560.84;;;17.59;100.00
46922;BME280;44039;48.336;10.454;2022-08-19T09:28:35;95556.19;;;17.88;100.00
46922;BME280;44039;48.336;10.454;2022-08-19T09:31:27;95560.56;;;17.80;100.00
46922;BME280;44039;48.336;10.454;2022-08-19T09:34:14;95557.91;;;17.62;100.00
46922;BME280;44039;48.336;10.454;2022-08-19T09:37:07;95567.50;;;17.45;100.00
46922;BME280;44039;48.336;10.454;2022-08-19T09:39:56;95561.38;;;17.62;100.00
46922;BME280;44039;48.336;10.454;2022-08-19T09:42:44;95565.84;;;17.44;100.00
46922;BME280;44039;48.336;10.454;2022-08-19T09:45:38;95562.50;;;17.60;100.00
46922;BME280;44039;48.336;10.454;2022-08-19T09:48:25;95566.59;;;17.18;100.00
46922;BME280;44039;48.336;10.454;2022-08-19T09:51:16;95568.09;;;17.57;100.00
46922;BME280;44039;48.336;10.454;2022-08-19T09:54:04;95582.94;;;17.40;100.00
46922;BME280;44039;48.336;10.454;2022-08-19T09:56:52;95588.13;;;17.14;100.00
46922;BME280;44039;48.336;10.454;2022-08-19T09:59:40;95579.03;;;17.26;100.00
46922;BME280;44039;48.336;10.454;2022-08-19T10:02:27;95592.97;;;17.36;100.00
46922;BME280;44039;48.336;10.454;2022-08-19T10:05:14;95589.22;;;17.57;100.00
46922;BME280;44039;48.336;10.454;2022-08-19T10:08:24;95585.22;;;17.52;100.00
46922;BME280;44039;48.336;10.454;2022-08-19T10:11:13;95588.91;;;17.42;100.00
46922;BME280;44039;48.336;10.454;2022-08-19T10:14:22;95589.66;;;17.34;100.00
46922;BME280;44039;48.336;10.454;2022-08-19T10:17:10;95593.63;;;17.20;100.00
46922;BME280;44039;48.336;10.454;2022-08-19T10:20:07;95594.19;;;17.42;100.00
46922;BME280;44039;48.336;10.454;2022-08-19T10:22:54;95591.50;;;17.06;100.00
46922;BME280;44039;48.336;10.454;2022-08-19T10:25:41;95596.72;;;17.16;100.00
46922;BME280;44039;48.336;10.454;2022-08-19T10:28:29;95604.94;;;17.13;100.00
46922;BME280;44039;48.336;10.454;2022-08-19T10:31:21;95605.81;;;17.04;100.00
46922;BME280;44039;48.336;10.454;2022-08-19T10:34:29;95610.56;;;17.00;100.00
46922;BME280;44039;48.336;10.454;2022-08-19T10:37:17;95599.75;;;17.21;100.00
46922;BME280;44039;48.336;10.454;2022-08-19T10:40:18;95609.75;;;17.17;100.00
46922;BME280;44039;48.336;10.454;2022-08-19T10:43:05;95607.00;;;17.37;100.00
46922;BME280;44039;48.336;10.454;2022-08-19T10:45:54;95605.84;;;17.21;100.00
46922;BME280;44039;48.336;10.454;2022-08-19T10:48:45;95606.34;;;17.07;100.00
46922;BME280;44039;48.336;10.454;2022-08-19T10:51:33;95605.28;;;17.00;100.00
46922;BME280;44039;48.336;10.454;2022-08-19T10:54:38;95599.66;;;17.13;100.00
46922;BME280;44039;48.336;10.454;2022-08-19T10:57:51;95603.47;;;17.01;100.00
46922;BME280;44039;48.336;10.454;2022-08-19T11:00:57;95604.03;;;17.04;100.00
46922;BME280;44039;48.336;10.454;2022-08-19T11:03:44;95607.19;;;17.08;100.00
46922;BME280;44039;48.336;10.454;2022-08-19T11:06:32;95593.66;;;17.38;100.00
46922;BME280;44039;48.336;10.454;2022-08-19T11:09:22;95588.13;;;17.14;100.00
46922;BME280;44039;48.336;10.454;2022-08-19T11:12:20;95600.34;;;17.15;100.00
46922;BME280;44039;48.336;10.454;2022-08-19T11:15:08;95594.47;;;17.21;100.00
46922;BME280;44039;48.336;10.454;2022-08-19T11:17:56;95602.47;;;17.29;100.00
46922;BME280;44039;48.336;10.454;2022-08-19T11:20:43;95598.09;;;17.20;100.00
46922;BME280;44039;48.336;10.454;2022-08-19T11:23:30;95601.78;;;17.27;100.00
46922;BME280;44039;48.336;10.454;2022-08-19T11:26:18;95597.13;;;17.39;100.00
46922;BME280;44039;48.336;10.454;2022-08-19T11:29:07;95602.78;;;16.99;100.00
46922;BME280;44039;48.336;10.454;2022-08-19T11:31:58;95609.06;;;16.98;100.00
46922;BME280;44039;48.336;10.454;2022-08-19T11:34:45;95604.25;;;17.11;100.00
46922;BME280;44039;48.336;10.454;2022-08-19T11:37:32;95606.91;;;17.29;100.00
46922;BME280;44039;48.336;10.454;2022-08-19T11:40:23;95613.09;;;17.19;100.00
46922;BME280;44039;48.336;10.454;2022-08-19T11:43:11;95612.03;;;17.12;100.00
46922;BME280;44039;48.336;10.454;2022-08-19T11:45:58;95614.47;;;16.96;100.00
46922;BME280;44039;48.336;10.454;2022-08-19T11:48:45;95612.91;;;17.03;100.00
46922;BME280;44039;48.336;10.454;2022-08-19T11:51:32;95612.41;;;16.90;100.00
46922;BME280;44039;48.336;10.454;2022-08-19T11:54:20;95614.63;;;16.94;100.00
46922;BME280;44039;48.336;10.454;2022-08-19T11:57:07;95617.88;;;17.06;100.00
46922;BME280;44039;48.336;10.454;2022-08-19T11:59:54;95622.09;;;17.17;100.00
46922;BME280;44039;48.336;10.454;2022-08-19T12:02:41;95624.09;;;17.33;100.00
46922;BME280;44039;48.336;10.454;2022-08-19T12:05:29;95622.91;;;17.27;100.00
46922;BME280;44039;48.336;10.454;2022-08-19T12:08:20;95627.78;;;17.22;100.00
46922;BME280;44039;48.336;10.454;2022-08-19T12:11:07;95630.09;;;17.07;100.00
46922;BME280;44039;48.336;10.454;2022-08-19T12:13:54;95624.31;;;17.39;100.00
46922;BME280;44039;48.336;10.454;2022-08-19T12:16:45;95627.72;;;17.32;100.00
46922;BME280;44039;48.336;10.454;2022-08-19T12:19:37;95630.63;;;17.11;100.00
46922;BME280;44039;48.336;10.454;2022-08-19T12:22:24;95638.66;;;17.09;100.00
46922;BME280;44039;48.336;10.454;2022-08-19T12:25:11;95644.91;;;17.18;100.00
46922;BME280;44039;48.336;10.454;2022-08-19T12:27:59;95641.88;;;17.31;100.00
46922;BME280;44039;48.336;10.454;2022-08-19T12:30:47;95640.47;;;17.36;100.00
46922;BME280;44039;48.336;10.454;2022-08-19T12:33:34;95647.06;;;17.22;100.00
46922;BME280;44039;48.336;10.454;2022-08-19T12:36:22;95637.50;;;17.21;100.00
46922;BME280;44039;48.336;10.454;2022-08-19T12:39:09;95639.41;;;17.02;100.00
46922;BME280;44039;48.336;10.454;2022-08-19T12:41:58;95638.72;;;17.00;100.00
46922;BME280;44039;48.336;10.454;2022-08-19T12:44:46;95637.72;;;17.10;100.00
46922;BME280;44039;48.336;10.454;2022-08-19T12:47:34;95640.69;;;16.98;100.00
46922;BME280;44039;48.336;10.454;2022-08-19T12:50:24;95642.00;;;17.11;100.00
46922;BME280;44039;48.336;10.454;2022-08-19T12:53:12;95645.22;;;17.05;100.00
46922;BME280;44039;48.336;10.454;2022-08-19T12:55:59;95640.38;;;17.01;100.00
46922;BME280;44039;48.336;10.454;2022-08-19T12:58:46;95633.28;;;17.11;100.00
46922;BME280;44039;48.336;10.454;2022-08-19T13:01:36;95639.13;;;17.05;100.00
46922;BME280;44039;48.336;10.454;2022-08-19T13:04:23;95635.84;;;17.20;100.00
46922;BME280;44039;48.336;10.454;2022-08-19T13:07:11;95646.91;;;17.24;100.00
46922;BME280;44039;48.336;10.454;2022-08-19T13:09:58;95650.66;;;17.04;100.00
46922;BME280;44039;48.336;10.454;2022-08-19T13:12:48;95647.69;;;16.89;100.00
46922;BME280;44039;48.336;10.454;2022-08-19T13:15:39;95657.38;;;17.16;100.00
46922;BME280;44039;48.336;10.454;2022-08-19T13:18:26;95657.09;;;17.19;100.00
46922;BME280;44039;48.336;10.454;2022-08-19T13:21:14;95659.84;;;17.27;100.00
46922;BME280;44039;48.336;10.454;2022-08-19T13:24:02;95661.56;;;17.09;100.00
46922;BME280;44039;48.336;10.454;2022-08-19T13:26:49;95660.72;;;17.18;100.00
46922;BME280;44039;48.336;10.454;2022-08-19T13:29:36;95658.75;;;17.20;100.00
46922;BME280;44039;48.336;10.454;2022-08-19T13:32:41;95659.88;;;16.90;100.00
46922;BME280;44039;48.336;10.454;2022-08-19T13:35:51;95663.34;;;16.90;100.00
46922;BME280;44039;48.336;10.454;2022-08-19T13:38:43;95667.56;;;17.11;100.00
46922;BME280;44039;48.336;10.454;2022-08-19T13:41:32;95660.91;;;17.07;100.00
46922;BME280;44039;48.336;10.454;2022-08-19T13:44:20;95657.75;;;17.03;100.00
46922;BME280;44039;48.336;10.454;2022-08-19T13:47:07;95662.16;;;16.75;100.00
46922;BME280;44039;48.336;10.454;2022-08-19T13:49:56;95651.56;;;16.85;100.00
46922;BME280;44039;48.336;10.454;2022-08-19T13:52:43;95658.16;;;16.99;100.00
46922;BME280;44039;48.336;10.454;2022-08-19T13:55:30;95654.75;;;17.16;100.00
46922;BME280;44039;48.336;10.454;2022-08-19T13:58:17;95652.81;;;17.18;100.00
46922;BME280;44039;48.336;10.454;2022-08-19T14:01:05;95653.63;;;16.91;100.00
46922;BME280;44039;48.336;10.454;2022-08-19T14:03:53;95645.41;;;16.94;100.00
46922;BME280;44039;48.336;10.454;2022-08-19T14:06:40;95644.66;;;17.11;100.00
46922;BME280;44039;48.336;10.454;2022-08-19T14:09:27;95655.19;;;17.11;100.00
46922;BME280;44039;48.336;10.454;2022-08-19T14:12:14;95657.44;;;17.34;100.00
46922;BME280;44039;48.336;10.454;2022-08-19T14:15:15;95661.66;;;17.27;100.00
46922;BME280;44039;48.336;10.454;2022-08-19T14:18:03;95657.81;;;17.39;100.00
46922;BME280;44039;48.336;10.454;2022-08-19T14:20:50;95665.44;;;17.60;100.00
46922;BME280;44039;48.336;10.454;2022-08-19T14:23:37;95663.38;;;17.08;100.00
46922;BME280;44039;48.336;10.454;2022-08-19T14:26:24;95665.75;;;17.11;100.00
46922;BME280;44039;48.336;10.454;2022-08-19T14:29:12;95664.13;;;17.28;100.00
46922;BME280;44039;48.336;10.454;2022-08-19T14:31:59;95668.72;;;17.26;100.00
46922;BME280;44039;48.336;10.454;2022-08-19T14:34:46;95664.28;;;17.27;100.00
46922;BME280;44039;48.336;10.454;2022-08-19T14:37:34;95668.03;;;17.24;100.00
46922;BME280;44039;48.336;10.454;2022-08-19T14:40:31;95667.19;;;17.23;100.00
46922;BME280;44039;48.336;10.454;2022-08-19T14:43:19;95667.09;;;17.15;100.00
46922;BME280;44039;48.336;10.454;2022-08-19T14:46:06;95669.22;;;17.12;100.00
46922;BME280;44039;48.336;10.454;2022-08-19T14:48:56;95668.25;;;17.13;100.00
46922;BME280;44039;48.336;10.454;2022-08-19T14:51:45;95669.13;;;17.04;100.00
46922;BME280;44039;48.336;10.454;2022-08-19T14:54:33;95670.09;;;17.03;100.00